sensor_id;sensor_type;location;lat;lon;timestamp;temperature;humidity
13229;DHT22;6680;53.220;10.402;2023-03-17T00:00:09;5.00;99.90
13229;DHT22;6680;53.220;10.402;2023-03-17T00:02:38;4.90;99.90
13229;DHT22;6680;53.220;10.402;2023-03-17T00:05:14;5.00;99.90
13229;DHT22;6680;53.220;10.402;2023-03-17T00:07:41;5.00;99.90
13229;DHT22;6680;53.220;10.402;2023-03-17T00:10:13;4.90;99.90
13229;DHT22;6680;53.220;10.402;2023-03-17T00:12:41;4.90;99.90
13229;DHT22;6680;53.220;10.402;2023-03-17T00:15:09;4.90;99.90
13229;DHT22;6680;53.220;10.402;2023-03-17T00:17:36;4.90;99.90
13229;DHT22;6680;53.220;10.402;2023-03-17T00:20:04;4.90;99.90
13229;DHT22;6680;53.220;10.402;2023-03-17T00:22:32;4.90;99.90
13229;DHT22;6680;53.220;10.402;2023-03-17T00:24:59;4.90;99.90
13229;DHT22;6680;53.220;10.402;2023-03-17T00:27:26;5.00;99.90
13229;DHT22;6680;53.220;10.402;2023-03-17T00:29:52;5.10;99.90
13229;DHT22;6680;53.220;10.402;2023-03-17T00:32:19;5.20;99.90
13229;DHT22;6680;53.220;10.402;2023-03-17T00:34:47;5.20;99.90
13229;DHT22;6680;53.220;10.402;2023-03-17T00:37:13;5.20;99.90
13229;DHT22;6680;53.220;10.402;2023-03-17T00:39:41;5.20;99.90
13229;DHT22;6680;53.220;10.402;2023-03-17T00:42:08;5.30;99.90
13229;DHT22;6680;53.220;10.402;2023-03-17T00:47:02;5.30;99.90
13229;DHT22;6680;53.220;10.402;2023-03-17T00:49:29;5.30;99.90
13229;DHT22;6680;53.220;10.402;2023-03-17T00:51:57;5.30;99.90
13229;DHT22;6680;53.220;10.402;2023-03-17T00:54:24;5.30;99.90
13229;DHT22;6680;53.220;10.402;2023-03-17T00:56:52;5.30;99.90
13229;DHT22;6680;53.220;10.402;2023-03-17T00:59:23;5.30;99.90
13229;DHT22;6680;53.220;10.402;2023-03-17T01:01:51;5.20;99.90
13229;DHT22;6680;53.220;10.402;2023-03-17T01:04:18;5.20;99.90
13229;DHT22;6680;53.220;10.402;2023-03-17T01:06:45;5.20;99.90
13229;DHT22;6680;53.220;10.402;2023-03-17T01:09:13;5.10;99.90
13229;DHT22;6680;53.220;10.402;2023-03-17T01:11:41;5.20;99.90
13229;DHT22;6680;53.220;10.402;2023-03-17T01:14:10;5.20;99.90
13229;DHT22;6680;53.220;10.402;2023-03-17T01:16:37;5.10;99.90
13229;DHT22;6680;53.220;10.402;2023-03-17T01:19:05;5.20;99.90
13229;DHT22;6680;53.220;10.402;2023-03-17T01:21:32;5.20;99.90
13229;DHT22;6680;53.220;10.402;2023-03-17T01:23:59;5.10;99.90
13229;DHT22;6680;53.220;10.402;2023-03-17T01:26:26;5.10;99.90
13229;DHT22;6680;53.220;10.402;2023-03-17T01:28:53;5.10;99.90
13229;DHT22;6680;53.220;10.402;2023-03-17T01:31:21;5.00;99.90
13229;DHT22;6680;53.220;10.402;2023-03-17T01:33:48;5.00;99.90
13229;DHT22;6680;53.220;10.402;2023-03-17T01:36:15;5.00;99.90
13229;DHT22;6680;53.220;10.402;2023-03-17T01:38:42;5.00;99.90
13229;DHT22;6680;53.220;10.402;2023-03-17T01:41:08;5.00;99.90
13229;DHT22;6680;53.220;10.402;2023-03-17T01:43:36;5.00;99.90
13229;DHT22;6680;53.220;10.402;2023-03-17T01:46:18;5.00;99.90
13229;DHT22;6680;53.220;10.402;2023-03-17T01:48:52;5.00;99.90
13229;DHT22;6680;53.220;10.402;2023-03-17T01:51:25;4.90;99.90
13229;DHT22;6680;53.220;10.402;2023-03-17T01:53:57;4.90;99.90
13229;DHT22;6680;53.220;10.402;2023-03-17T01:56:25;5.00;99.90
13229;DHT22;6680;53.220;10.402;2023-03-17T01:58:53;4.90;99.90
13229;DHT22;6680;53.220;10.402;2023-03-17T02:01:26;4.90;99.90
13229;DHT22;6680;53.220;10.402;2023-03-17T02:03:56;4.90;99.90
13229;DHT22;6680;53.220;10.402;2023-03-17T02:06:24;5.10;99.90
13229;DHT22;6680;53.220;10.402;2023-03-17T02:08:51;4.80;99.90
13229;DHT22;6680;53.220;10.402;2023-03-17T02:13:47;4.70;99.90
13229;DHT22;6680;53.220;10.402;2023-03-17T02:16:14;4.60;99.90
13229;DHT22;6680;53.220;10.402;2023-03-17T02:18:42;4.60;99.90
13229;DHT22;6680;53.220;10.402;2023-03-17T02:21:30;4.50;99.90
13229;DHT22;6680;53.220;10.402;2023-03-17T02:24:00;4.60;99.90
13229;DHT22;6680;53.220;10.402;2023-03-17T02:26:29;4.60;99.90
13229;DHT22;6680;53.220;10.402;2023-03-17T02:28:57;4.50;99.90
13229;DHT22;6680;53.220;10.402;2023-03-17T02:31:25;4.50;99.90
13229;DHT22;6680;53.220;10.402;2023-03-17T02:33:52;4.60;99.90
13229;DHT22;6680;53.220;10.402;2023-03-17T02:36:19;4.50;99.90
13229;DHT22;6680;53.220;10.402;2023-03-17T02:38:47;4.50;99.90
13229;DHT22;6680;53.220;10.402;2023-03-17T02:41:14;4.50;99.90
13229;DHT22;6680;53.220;10.402;2023-03-17T02:46:08;4.50;99.90
13229;DHT22;6680;53.220;10.402;2023-03-17T02:48:35;4.60;99.90
13229;DHT22;6680;53.220;10.402;2023-03-17T02:51:02;4.60;99.90
13229;DHT22;6680;53.220;10.402;2023-03-17T02:53:29;4.50;99.90
13229;DHT22;6680;53.220;10.402;2023-03-17T02:55:57;4.50;99.90
13229;DHT22;6680;53.220;10.402;2023-03-17T02:58:24;4.40;99.90
13229;DHT22;6680;53.220;10.402;2023-03-17T03:00:51;4.50;99.90
13229;DHT22;6680;53.220;10.402;2023-03-17T03:03:18;4.50;99.90
13229;DHT22;6680;53.220;10.402;2023-03-17T03:05:45;4.50;99.90
13229;DHT22;6680;53.220;10.402;2023-03-17T03:11:35;4.40;99.90
13229;DHT22;6680;53.220;10.402;2023-03-17T03:14:02;4.30;99.90
13229;DHT22;6680;53.220;10.402;2023-03-17T03:16:29;4.30;99.90
13229;DHT22;6680;53.220;10.402;2023-03-17T03:18:55;4.40;99.90
13229;DHT22;6680;53.220;10.402;2023-03-17T03:21:22;4.40;99.90
13229;DHT22;6680;53.220;10.402;2023-03-17T03:23:49;4.30;99.90
13229;DHT22;6680;53.220;10.402;2023-03-17T03:26:16;4.40;99.90
13229;DHT22;6680;53.220;10.402;2023-03-17T03:28:44;4.50;99.90
13229;DHT22;6680;53.220;10.402;2023-03-17T03:31:10;4.40;99.90
13229;DHT22;6680;53.220;10.402;2023-03-17T03:33:38;4.50;99.90
13229;DHT22;6680;53.220;10.402;2023-03-17T03:36:05;4.50;99.90
13229;DHT22;6680;53.220;10.402;2023-03-17T03:38:33;4.40;99.90
13229;DHT22;6680;53.220;10.402;2023-03-17T03:40:59;4.50;99.90
13229;DHT22;6680;53.220;10.402;2023-03-17T03:43:26;4.60;99.90
13229;DHT22;6680;53.220;10.402;2023-03-17T03:45:54;4.50;99.90
13229;DHT22;6680;53.220;10.402;2023-03-17T03:48:21;4.60;99.90
13229;DHT22;6680;53.220;10.402;2023-03-17T03:50:48;4.50;99.90
13229;DHT22;6680;53.220;10.402;2023-03-17T03:55:42;4.40;99.90
13229;DHT22;6680;53.220;10.402;2023-03-17T03:58:08;4.40;99.90
13229;DHT22;6680;53.220;10.402;2023-03-17T04:00:35;4.40;99.90
13229;DHT22;6680;53.220;10.402;2023-03-17T04:03:03;4.40;99.90
13229;DHT22;6680;53.220;10.402;2023-03-17T04:05:30;4.40;99.90
13229;DHT22;6680;53.220;10.402;2023-03-17T04:07:57;4.40;99.90
13229;DHT22;6680;53.220;10.402;2023-03-17T04:10:24;4.30;99.90
13229;DHT22;6680;53.220;10.402;2023-03-17T04:12:50;4.30;99.90
13229;DHT22;6680;53.220;10.402;2023-03-17T04:15:18;4.30;99.90
13229;DHT22;6680;53.220;10.402;2023-03-17T04:17:45;4.30;99.90
13229;DHT22;6680;53.220;10.402;2023-03-17T04:20:14;4.30;99.90
13229;DHT22;6680;53.220;10.402;2023-03-17T04:22:41;4.30;99.90
13229;DHT22;6680;53.220;10.402;2023-03-17T04:25:09;4.30;99.90
13229;DHT22;6680;53.220;10.402;2023-03-17T04:27:36;4.20;99.90
13229;DHT22;6680;53.220;10.402;2023-03-17T04:30:04;4.10;99.90
13229;DHT22;6680;53.220;10.402;2023-03-17T04:32:31;4.10;99.90
13229;DHT22;6680;53.220;10.402;2023-03-17T04:34:58;4.10;99.90
13229;DHT22;6680;53.220;10.402;2023-03-17T04:37:26;4.00;99.90
13229;DHT22;6680;53.220;10.402;2023-03-17T04:39:53;3.90;99.90
13229;DHT22;6680;53.220;10.402;2023-03-17T04:42:20;3.90;99.90
13229;DHT22;6680;53.220;10.402;2023-03-17T04:44:47;3.80;99.90
13229;DHT22;6680;53.220;10.402;2023-03-17T04:47:14;3.80;99.90
13229;DHT22;6680;53.220;10.402;2023-03-17T04:49:41;3.70;99.90
13229;DHT22;6680;53.220;10.402;2023-03-17T04:52:08;3.70;99.90
13229;DHT22;6680;53.220;10.402;2023-03-17T04:54:36;3.60;99.90
13229;DHT22;6680;53.220;10.402;2023-03-17T04:57:03;3.50;99.90
13229;DHT22;6680;53.220;10.402;2023-03-17T04:59:30;3.40;99.90
13229;DHT22;6680;53.220;10.402;2023-03-17T05:01:57;3.40;99.90
13229;DHT22;6680;53.220;10.402;2023-03-17T05:04:23;3.30;99.90
13229;DHT22;6680;53.220;10.402;2023-03-17T05:06:50;3.40;99.90
13229;DHT22;6680;53.220;10.402;2023-03-17T05:09:16;3.30;99.90
13229;DHT22;6680;53.220;10.402;2023-03-17T05:11:44;3.20;99.90
13229;DHT22;6680;53.220;10.402;2023-03-17T05:14:11;3.30;99.90
13229;DHT22;6680;53.220;10.402;2023-03-17T05:16:38;3.20;99.90
13229;DHT22;6680;53.220;10.402;2023-03-17T05:19:05;3.30;99.90
13229;DHT22;6680;53.220;10.402;2023-03-17T05:21:31;3.30;99.90
13229;DHT22;6680;53.220;10.402;2023-03-17T05:23:58;3.20;99.90
13229;DHT22;6680;53.220;10.402;2023-03-17T05:26:25;3.30;99.90
13229;DHT22;6680;53.220;10.402;2023-03-17T05:28:53;3.20;99.90
13229;DHT22;6680;53.220;10.402;2023-03-17T05:31:19;3.20;99.90
13229;DHT22;6680;53.220;10.402;2023-03-17T05:33:46;3.20;99.90
13229;DHT22;6680;53.220;10.402;2023-03-17T05:36:14;3.20;99.90
13229;DHT22;6680;53.220;10.402;2023-03-17T05:38:41;3.10;99.90
13229;DHT22;6680;53.220;10.402;2023-03-17T05:41:07;3.10;99.90
13229;DHT22;6680;53.220;10.402;2023-03-17T05:43:35;3.10;99.90
13229;DHT22;6680;53.220;10.402;2023-03-17T05:46:03;3.20;99.90
13229;DHT22;6680;53.220;10.402;2023-03-17T05:48:30;3.40;99.90
13229;DHT22;6680;53.220;10.402;2023-03-17T05:53:25;3.30;99.90
13229;DHT22;6680;53.220;10.402;2023-03-17T05:55:51;3.30;99.90
13229;DHT22;6680;53.220;10.402;2023-03-17T05:58:18;3.50;99.90
13229;DHT22;6680;53.220;10.402;2023-03-17T06:00:45;3.50;99.90
13229;DHT22;6680;53.220;10.402;2023-03-17T06:03:13;3.50;99.90
13229;DHT22;6680;53.220;10.402;2023-03-17T06:05:40;3.50;99.90
13229;DHT22;6680;53.220;10.402;2023-03-17T06:08:07;3.40;99.90
13229;DHT22;6680;53.220;10.402;2023-03-17T06:10:34;3.50;99.90
13229;DHT22;6680;53.220;10.402;2023-03-17T06:13:01;3.60;99.90
13229;DHT22;6680;53.220;10.402;2023-03-17T06:15:29;3.60;99.90
13229;DHT22;6680;53.220;10.402;2023-03-17T06:20:24;3.60;99.90
13229;DHT22;6680;53.220;10.402;2023-03-17T06:22:50;3.60;99.90
13229;DHT22;6680;53.220;10.402;2023-03-17T06:25:17;3.70;99.90
13229;DHT22;6680;53.220;10.402;2023-03-17T06:27:44;3.80;99.90
13229;DHT22;6680;53.220;10.402;2023-03-17T06:30:11;3.90;99.90
13229;DHT22;6680;53.220;10.402;2023-03-17T06:32:38;3.80;99.90
13229;DHT22;6680;53.220;10.402;2023-03-17T06:35:05;3.90;99.90
13229;DHT22;6680;53.220;10.402;2023-03-17T06:37:34;3.90;99.90
13229;DHT22;6680;53.220;10.402;2023-03-17T06:40:01;3.90;99.90
13229;DHT22;6680;53.220;10.402;2023-03-17T06:42:30;4.00;99.90
13229;DHT22;6680;53.220;10.402;2023-03-17T06:44:57;4.00;99.90
13229;DHT22;6680;53.220;10.402;2023-03-17T06:47:23;4.10;99.90
13229;DHT22;6680;53.220;10.402;2023-03-17T06:49:50;4.10;99.90
13229;DHT22;6680;53.220;10.402;2023-03-17T06:52:17;4.20;99.90
13229;DHT22;6680;53.220;10.402;2023-03-17T06:54:45;4.30;99.90
13229;DHT22;6680;53.220;10.402;2023-03-17T06:57:12;4.40;99.90
13229;DHT22;6680;53.220;10.402;2023-03-17T06:59:39;4.40;99.90
13229;DHT22;6680;53.220;10.402;2023-03-17T07:02:06;4.50;99.90
13229;DHT22;6680;53.220;10.402;2023-03-17T07:04:32;4.60;99.90
13229;DHT22;6680;53.220;10.402;2023-03-17T07:07:02;4.60;99.90
13229;DHT22;6680;53.220;10.402;2023-03-17T07:09:30;4.80;99.90
13229;DHT22;6680;53.220;10.402;2023-03-17T07:11:59;4.80;99.90
13229;DHT22;6680;53.220;10.402;2023-03-17T07:14:30;4.90;99.90
13229;DHT22;6680;53.220;10.402;2023-03-17T07:16:57;4.90;99.90
13229;DHT22;6680;53.220;10.402;2023-03-17T07:19:24;5.00;99.90
13229;DHT22;6680;53.220;10.402;2023-03-17T07:21:51;5.10;99.90
13229;DHT22;6680;53.220;10.402;2023-03-17T07:24:20;5.10;99.90
13229;DHT22;6680;53.220;10.402;2023-03-17T07:26:46;5.20;99.90
13229;DHT22;6680;53.220;10.402;2023-03-17T07:29:15;5.20;99.90
13229;DHT22;6680;53.220;10.402;2023-03-17T07:31:42;5.30;99.90
13229;DHT22;6680;53.220;10.402;2023-03-17T07:34:08;5.40;99.90
13229;DHT22;6680;53.220;10.402;2023-03-17T07:36:36;5.40;99.90
13229;DHT22;6680;53.220;10.402;2023-03-17T07:39:03;5.50;99.90
13229;DHT22;6680;53.220;10.402;2023-03-17T07:41:29;5.60;99.90
13229;DHT22;6680;53.220;10.402;2023-03-17T07:43:56;5.70;99.90
13229;DHT22;6680;53.220;10.402;2023-03-17T07:46:24;5.70;99.90
13229;DHT22;6680;53.220;10.402;2023-03-17T07:48:51;5.70;99.90
13229;DHT22;6680;53.220;10.402;2023-03-17T07:51:19;5.70;99.90
13229;DHT22;6680;53.220;10.402;2023-03-17T07:53:46;5.80;99.90
13229;DHT22;6680;53.220;10.402;2023-03-17T07:56:15;5.90;99.90
13229;DHT22;6680;53.220;10.402;2023-03-17T07:58:42;6.00;99.90
13229;DHT22;6680;53.220;10.402;2023-03-17T08:03:37;6.10;99.90
13229;DHT22;6680;53.220;10.402;2023-03-17T08:06:04;6.20;99.90
13229;DHT22;6680;53.220;10.402;2023-03-17T08:08:31;6.10;99.90
13229;DHT22;6680;53.220;10.402;2023-03-17T08:11:00;6.30;99.90
13229;DHT22;6680;53.220;10.402;2023-03-17T08:13:28;6.40;99.90
13229;DHT22;6680;53.220;10.402;2023-03-17T08:15:54;6.50;99.90
13229;DHT22;6680;53.220;10.402;2023-03-17T08:18:21;6.60;99.90
13229;DHT22;6680;53.220;10.402;2023-03-17T08:20:49;6.70;99.90
13229;DHT22;6680;53.220;10.402;2023-03-17T08:23:16;6.90;99.90
13229;DHT22;6680;53.220;10.402;2023-03-17T08:25:43;7.10;99.90
13229;DHT22;6680;53.220;10.402;2023-03-17T08:28:11;7.20;99.90
13229;DHT22;6680;53.220;10.402;2023-03-17T08:30:38;7.40;99.90
13229;DHT22;6680;53.220;10.402;2023-03-17T08:33:05;7.60;99.90
13229;DHT22;6680;53.220;10.402;2023-03-17T08:35:32;7.60;99.90
13229;DHT22;6680;53.220;10.402;2023-03-17T08:38:00;7.70;99.90
13229;DHT22;6680;53.220;10.402;2023-03-17T08:40:26;7.70;99.90
13229;DHT22;6680;53.220;10.402;2023-03-17T08:42:53;7.80;99.90
13229;DHT22;6680;53.220;10.402;2023-03-17T08:45:20;7.80;99.90
13229;DHT22;6680;53.220;10.402;2023-03-17T08:47:46;7.80;99.90
13229;DHT22;6680;53.220;10.402;2023-03-17T08:50:16;7.90;99.90
13229;DHT22;6680;53.220;10.402;2023-03-17T08:52:43;7.90;99.90
13229;DHT22;6680;53.220;10.402;2023-03-17T08:55:12;8.00;99.90
13229;DHT22;6680;53.220;10.402;2023-03-17T08:57:40;8.10;99.90
13229;DHT22;6680;53.220;10.402;2023-03-17T09:00:08;8.10;99.90
13229;DHT22;6680;53.220;10.402;2023-03-17T09:02:36;8.20;99.90
13229;DHT22;6680;53.220;10.402;2023-03-17T09:05:03;8.30;99.90
13229;DHT22;6680;53.220;10.402;2023-03-17T09:07:30;8.40;99.90
13229;DHT22;6680;53.220;10.402;2023-03-17T09:09:57;8.50;99.90
13229;DHT22;6680;53.220;10.402;2023-03-17T09:12:25;8.60;99.90
13229;DHT22;6680;53.220;10.402;2023-03-17T09:14:52;8.60;99.90
13229;DHT22;6680;53.220;10.402;2023-03-17T09:17:20;8.70;99.90
13229;DHT22;6680;53.220;10.402;2023-03-17T09:19:47;8.70;99.90
13229;DHT22;6680;53.220;10.402;2023-03-17T09:22:15;8.80;99.90
13229;DHT22;6680;53.220;10.402;2023-03-17T09:24:42;8.80;99.90
13229;DHT22;6680;53.220;10.402;2023-03-17T09:27:08;8.90;99.90
13229;DHT22;6680;53.220;10.402;2023-03-17T09:29:36;9.00;99.90
13229;DHT22;6680;53.220;10.402;2023-03-17T09:32:03;9.10;99.90
13229;DHT22;6680;53.220;10.402;2023-03-17T09:34:30;9.20;99.90
13229;DHT22;6680;53.220;10.402;2023-03-17T09:36:57;9.30;99.90
13229;DHT22;6680;53.220;10.402;2023-03-17T09:39:24;9.40;99.90
13229;DHT22;6680;53.220;10.402;2023-03-17T09:42:04;9.40;99.90
13229;DHT22;6680;53.220;10.402;2023-03-17T09:44:46;9.50;99.90
13229;DHT22;6680;53.220;10.402;2023-03-17T09:47:39;9.70;99.90
13229;DHT22;6680;53.220;10.402;2023-03-17T09:50:12;10.00;99.90
13229;DHT22;6680;53.220;10.402;2023-03-17T09:52:41;10.20;99.90
13229;DHT22;6680;53.220;10.402;2023-03-17T09:55:25;10.40;99.90
13229;DHT22;6680;53.220;10.402;2023-03-17T09:57:54;10.60;99.90
13229;DHT22;6680;53.220;10.402;2023-03-17T10:00:24;10.70;99.90
13229;DHT22;6680;53.220;10.402;2023-03-17T10:02:53;10.80;99.90
13229;DHT22;6680;53.220;10.402;2023-03-17T10:05:22;11.00;99.90
13229;DHT22;6680;53.220;10.402;2023-03-17T10:07:58;11.10;99.90
13229;DHT22;6680;53.220;10.402;2023-03-17T10:10:34;11.10;99.90
13229;DHT22;6680;53.220;10.402;2023-03-17T10:13:08;11.20;99.90
13229;DHT22;6680;53.220;10.402;2023-03-17T10:15:45;11.40;99.90
13229;DHT22;6680;53.220;10.402;2023-03-17T10:18:15;11.50;99.90
13229;DHT22;6680;53.220;10.402;2023-03-17T10:20:48;11.60;99.90
13229;DHT22;6680;53.220;10.402;2023-03-17T10:23:19;11.60;99.90
13229;DHT22;6680;53.220;10.402;2023-03-17T10:25:47;12.80;99.90
13229;DHT22;6680;53.220;10.402;2023-03-17T10:28:26;12.00;99.90
13229;DHT22;6680;53.220;10.402;2023-03-17T10:30:56;12.10;99.90
13229;DHT22;6680;53.220;10.402;2023-03-17T10:33:27;12.20;99.90
13229;DHT22;6680;53.220;10.402;2023-03-17T10:35:55;12.30;99.90
13229;DHT22;6680;53.220;10.402;2023-03-17T10:38:22;12.30;99.90
13229;DHT22;6680;53.220;10.402;2023-03-17T10:40:55;13.60;99.90
13229;DHT22;6680;53.220;10.402;2023-03-17T10:43:27;12.50;99.90
13229;DHT22;6680;53.220;10.402;2023-03-17T10:45:59;12.60;99.90
13229;DHT22;6680;53.220;10.402;2023-03-17T10:48:28;12.90;99.90
13229;DHT22;6680;53.220;10.402;2023-03-17T10:50:56;12.70;99.90
13229;DHT22;6680;53.220;10.402;2023-03-17T10:53:26;12.70;99.90
13229;DHT22;6680;53.220;10.402;2023-03-17T10:55:57;12.80;99.90
13229;DHT22;6680;53.220;10.402;2023-03-17T10:58:35;12.70;99.90
13229;DHT22;6680;53.220;10.402;2023-03-17T11:01:06;12.90;99.90
13229;DHT22;6680;53.220;10.402;2023-03-17T11:03:36;12.90;99.90
13229;DHT22;6680;53.220;10.402;2023-03-17T11:06:06;12.90;99.90
13229;DHT22;6680;53.220;10.402;2023-03-17T11:08:37;13.00;99.90
13229;DHT22;6680;53.220;10.402;2023-03-17T11:11:06;13.10;99.90
13229;DHT22;6680;53.220;10.402;2023-03-17T11:13:34;13.20;99.90
13229;DHT22;6680;53.220;10.402;2023-03-17T11:16:08;13.20;99.90
13229;DHT22;6680;53.220;10.402;2023-03-17T11:18:37;13.20;99.90
13229;DHT22;6680;53.220;10.402;2023-03-17T11:21:15;13.30;99.90
13229;DHT22;6680;53.220;10.402;2023-03-17T11:23:50;13.40;99.90
13229;DHT22;6680;53.220;10.402;2023-03-17T11:26:28;13.50;99.90
13229;DHT22;6680;53.220;10.402;2023-03-17T11:29:12;13.60;99.90
13229;DHT22;6680;53.220;10.402;2023-03-17T11:31:47;13.70;99.90
13229;DHT22;6680;53.220;10.402;2023-03-17T11:34:22;13.80;99.90
13229;DHT22;6680;53.220;10.402;2023-03-17T11:36:56;14.00;99.90
13229;DHT22;6680;53.220;10.402;2023-03-17T11:39:33;14.20;99.90
13229;DHT22;6680;53.220;10.402;2023-03-17T11:42:09;14.30;99.90
13229;DHT22;6680;53.220;10.402;2023-03-17T11:48:03;14.50;99.90
13229;DHT22;6680;53.220;10.402;2023-03-17T11:50:36;14.60;99.90
13229;DHT22;6680;53.220;10.402;2023-03-17T11:53:19;14.70;99.90
13229;DHT22;6680;53.220;10.402;2023-03-17T11:55:55;14.80;99.90
13229;DHT22;6680;53.220;10.402;2023-03-17T11:58:30;14.90;99.90
13229;DHT22;6680;53.220;10.402;2023-03-17T12:00:59;15.00;99.90
13229;DHT22;6680;53.220;10.402;2023-03-17T12:03:33;15.10;99.90
13229;DHT22;6680;53.220;10.402;2023-03-17T12:06:06;15.20;99.90
13229;DHT22;6680;53.220;10.402;2023-03-17T12:08:39;15.40;99.90
13229;DHT22;6680;53.220;10.402;2023-03-17T12:11:12;15.30;99.90
13229;DHT22;6680;53.220;10.402;2023-03-17T12:13:44;15.40;99.90
13229;DHT22;6680;53.220;10.402;2023-03-17T12:16:16;15.50;99.90
13229;DHT22;6680;53.220;10.402;2023-03-17T12:18:54;15.50;99.90
13229;DHT22;6680;53.220;10.402;2023-03-17T12:21:26;15.50;99.90
13229;DHT22;6680;53.220;10.402;2023-03-17T12:23:59;15.50;99.90
13229;DHT22;6680;53.220;10.402;2023-03-17T12:26:32;15.50;99.90
13229;DHT22;6680;53.220;10.402;2023-03-17T12:29:04;15.40;99.90
13229;DHT22;6680;53.220;10.402;2023-03-17T12:31:36;15.40;99.90
13229;DHT22;6680;53.220;10.402;2023-03-17T12:34:10;15.40;99.90
13229;DHT22;6680;53.220;10.402;2023-03-17T12:36:41;15.40;99.90
13229;DHT22;6680;53.220;10.402;2023-03-17T12:39:11;15.50;99.90
13229;DHT22;6680;53.220;10.402;2023-03-17T12:44:41;15.50;99.90
13229;DHT22;6680;53.220;10.402;2023-03-17T12:50:18;15.80;99.90
13229;DHT22;6680;53.220;10.402;2023-03-17T12:53:20;15.80;99.90
13229;DHT22;6680;53.220;10.402;2023-03-17T12:55:50;15.90;99.90
13229;DHT22;6680;53.220;10.402;2023-03-17T12:58:27;16.00;99.90
13229;DHT22;6680;53.220;10.402;2023-03-17T13:01:02;16.00;99.90
13229;DHT22;6680;53.220;10.402;2023-03-17T13:03:32;16.00;99.90
13229;DHT22;6680;53.220;10.402;2023-03-17T13:06:05;16.00;99.90
13229;DHT22;6680;53.220;10.402;2023-03-17T13:08:34;15.70;99.90
13229;DHT22;6680;53.220;10.402;2023-03-17T13:11:17;16.00;99.90
13229;DHT22;6680;53.220;10.402;2023-03-17T13:13:56;15.90;99.90
13229;DHT22;6680;53.220;10.402;2023-03-17T13:16:32;15.90;99.90
13229;DHT22;6680;53.220;10.402;2023-03-17T13:19:17;15.80;99.90
13229;DHT22;6680;53.220;10.402;2023-03-17T13:21:49;15.70;99.90
13229;DHT22;6680;53.220;10.402;2023-03-17T13:24:22;15.60;99.90
13229;DHT22;6680;53.220;10.402;2023-03-17T13:26:52;15.50;99.90
13229;DHT22;6680;53.220;10.402;2023-03-17T13:29:37;15.40;99.90
13229;DHT22;6680;53.220;10.402;2023-03-17T13:32:29;15.40;99.90
13229;DHT22;6680;53.220;10.402;2023-03-17T13:35:13;15.30;99.90
13229;DHT22;6680;53.220;10.402;2023-03-17T13:37:52;15.30;99.90
13229;DHT22;6680;53.220;10.402;2023-03-17T13:40:24;15.40;99.90
13229;DHT22;6680;53.220;10.402;2023-03-17T13:43:07;15.40;99.90
13229;DHT22;6680;53.220;10.402;2023-03-17T13:45:37;15.50;99.90
13229;DHT22;6680;53.220;10.402;2023-03-17T13:48:31;15.50;99.90
13229;DHT22;6680;53.220;10.402;2023-03-17T13:51:03;15.50;99.90
13229;DHT22;6680;53.220;10.402;2023-03-17T13:53:40;15.50;99.90
13229;DHT22;6680;53.220;10.402;2023-03-17T13:56:13;15.60;99.90
13229;DHT22;6680;53.220;10.402;2023-03-17T13:59:04;15.80;99.90
13229;DHT22;6680;53.220;10.402;2023-03-17T14:01:35;15.80;99.90
13229;DHT22;6680;53.220;10.402;2023-03-17T14:04:11;15.80;99.90
13229;DHT22;6680;53.220;10.402;2023-03-17T14:06:42;15.90;99.90
13229;DHT22;6680;53.220;10.402;2023-03-17T14:09:30;16.00;99.90
13229;DHT22;6680;53.220;10.402;2023-03-17T14:12:01;16.10;99.90
13229;DHT22;6680;53.220;10.402;2023-03-17T14:14:36;16.10;99.90
13229;DHT22;6680;53.220;10.402;2023-03-17T14:17:10;16.10;99.90
13229;DHT22;6680;53.220;10.402;2023-03-17T14:19:39;16.00;99.90
13229;DHT22;6680;53.220;10.402;2023-03-17T14:22:21;16.00;99.90
13229;DHT22;6680;53.220;10.402;2023-03-17T14:24:52;16.00;99.90
13229;DHT22;6680;53.220;10.402;2023-03-17T14:27:21;16.10;99.90
13229;DHT22;6680;53.220;10.402;2023-03-17T14:29:48;16.10;99.90
13229;DHT22;6680;53.220;10.402;2023-03-17T14:32:18;16.10;99.90
13229;DHT22;6680;53.220;10.402;2023-03-17T14:34:46;16.10;99.90
13229;DHT22;6680;53.220;10.402;2023-03-17T14:37:17;16.10;99.90
13229;DHT22;6680;53.220;10.402;2023-03-17T14:39:47;16.00;99.90
13229;DHT22;6680;53.220;10.402;2023-03-17T14:42:17;16.00;99.90
13229;DHT22;6680;53.220;10.402;2023-03-17T14:44:45;15.90;99.90
13229;DHT22;6680;53.220;10.402;2023-03-17T14:47:14;15.90;99.90
13229;DHT22;6680;53.220;10.402;2023-03-17T14:49:42;15.90;99.90
13229;DHT22;6680;53.220;10.402;2023-03-17T14:52:17;16.00;99.90
13229;DHT22;6680;53.220;10.402;2023-03-17T14:54:48;16.00;99.90
13229;DHT22;6680;53.220;10.402;2023-03-17T14:57:17;16.00;99.90
13229;DHT22;6680;53.220;10.402;2023-03-17T14:59:55;16.00;99.90
13229;DHT22;6680;53.220;10.402;2023-03-17T15:02:26;16.00;99.90
13229;DHT22;6680;53.220;10.402;2023-03-17T15:04:56;15.90;99.90
13229;DHT22;6680;53.220;10.402;2023-03-17T15:07:30;15.90;99.90
13229;DHT22;6680;53.220;10.402;2023-03-17T15:09:58;16.00;99.90
13229;DHT22;6680;53.220;10.402;2023-03-17T15:12:28;15.90;99.90
13229;DHT22;6680;53.220;10.402;2023-03-17T15:14:57;15.90;99.90
13229;DHT22;6680;53.220;10.402;2023-03-17T15:17:28;15.80;99.90
13229;DHT22;6680;53.220;10.402;2023-03-17T15:19:59;15.80;99.90
13229;DHT22;6680;53.220;10.402;2023-03-17T15:22:30;15.70;99.90
13229;DHT22;6680;53.220;10.402;2023-03-17T15:25:01;15.50;99.90
13229;DHT22;6680;53.220;10.402;2023-03-17T15:27:30;15.50;99.90
13229;DHT22;6680;53.220;10.402;2023-03-17T15:29:57;15.40;99.90
13229;DHT22;6680;53.220;10.402;2023-03-17T15:32:25;15.30;99.90
13229;DHT22;6680;53.220;10.402;2023-03-17T15:34:53;15.20;99.90
13229;DHT22;6680;53.220;10.402;2023-03-17T15:37:22;15.20;99.90
13229;DHT22;6680;53.220;10.402;2023-03-17T15:39:50;15.20;99.90
13229;DHT22;6680;53.220;10.402;2023-03-17T15:42:19;15.20;99.90
13229;DHT22;6680;53.220;10.402;2023-03-17T15:44:48;15.10;99.90
13229;DHT22;6680;53.220;10.402;2023-03-17T15:47:16;15.10;99.90
13229;DHT22;6680;53.220;10.402;2023-03-17T15:49:44;15.10;99.90
13229;DHT22;6680;53.220;10.402;2023-03-17T15:52:14;15.10;99.90
13229;DHT22;6680;53.220;10.402;2023-03-17T15:54:41;15.00;99.90
13229;DHT22;6680;53.220;10.402;2023-03-17T15:57:09;14.90;99.90
13229;DHT22;6680;53.220;10.402;2023-03-17T15:59:36;15.00;99.90
13229;DHT22;6680;53.220;10.402;2023-03-17T16:02:14;14.90;99.90
13229;DHT22;6680;53.220;10.402;2023-03-17T16:04:47;14.90;99.90
13229;DHT22;6680;53.220;10.402;2023-03-17T16:07:14;14.80;99.90
13229;DHT22;6680;53.220;10.402;2023-03-17T16:09:40;14.70;99.90
13229;DHT22;6680;53.220;10.402;2023-03-17T16:12:08;14.70;99.90
13229;DHT22;6680;53.220;10.402;2023-03-17T16:14:36;14.60;99.90
13229;DHT22;6680;53.220;10.402;2023-03-17T16:17:04;14.50;99.90
13229;DHT22;6680;53.220;10.402;2023-03-17T16:19:32;14.40;99.90
13229;DHT22;6680;53.220;10.402;2023-03-17T16:21:59;14.40;99.90
13229;DHT22;6680;53.220;10.402;2023-03-17T16:24:26;14.30;99.90